createdAt,value
2023-02-05T00:00:37.584Z,7.88
2023-02-05T00:02:40.368Z,14.00
2023-02-05T00:04:43.187Z,16.55
2023-02-05T00:06:46.146Z,15.95
2023-02-05T00:08:48.925Z,17.38
2023-02-05T00:10:55.006Z,17.63
2023-02-05T00:12:59.191Z,11.57
2023-02-05T00:15:02.014Z,8.68
2023-02-05T00:17:04.877Z,14.32
2023-02-05T00:19:07.724Z,10.23
2023-02-05T00:21:11.463Z,8.60
2023-02-05T00:23:14.298Z,9.70
2023-02-05T00:25:17.159Z,10.38
2023-02-05T00:27:19.988Z,12.80
2023-02-05T00:29:24.125Z,13.02
2023-02-05T00:31:27.154Z,14.60
2023-02-05T00:33:30.115Z,13.60
2023-02-05T00:35:33.135Z,11.95
2023-02-05T00:37:36.152Z,13.32
2023-02-05T00:39:38.975Z,14.23
2023-02-05T00:41:41.819Z,14.43
2023-02-05T00:43:45.028Z,14.18
2023-02-05T00:45:49.994Z,17.20
2023-02-05T00:47:52.764Z,12.73
2023-02-05T00:49:55.531Z,17.25
2023-02-05T00:51:58.296Z,14.82
2023-02-05T00:54:01.081Z,11.98
2023-02-05T00:56:04.177Z,11.35
2023-02-05T00:58:07.340Z,15.02
2023-02-05T01:00:11.587Z,11.48
2023-02-05T01:02:15.768Z,14.25
2023-02-05T01:04:18.823Z,14.55
2023-02-05T01:06:21.952Z,11.30
2023-02-05T01:08:25.093Z,11.40
2023-02-05T01:10:28.051Z,10.48
2023-02-05T01:12:33.163Z,12.70
2023-02-05T01:14:35.969Z,11.82
2023-02-05T01:16:38.776Z,12.93
2023-02-05T01:18:42.915Z,14.73
2023-02-05T01:20:45.745Z,10.15
2023-02-05T01:22:49.297Z,11.18
2023-02-05T01:24:52.546Z,12.63
2023-02-05T01:26:56.164Z,12.25
2023-02-05T01:28:58.951Z,13.65
2023-02-05T01:31:01.812Z,12.15
2023-02-05T01:33:05.345Z,13.00
2023-02-05T01:35:10.514Z,11.38
2023-02-05T01:37:13.265Z,12.88
2023-02-05T01:39:16.449Z,12.40
2023-02-05T01:41:19.491Z,14.27
2023-02-05T01:43:23.319Z,13.93
2023-02-05T01:46:01.848Z,15.32
2023-02-05T01:48:07.007Z,14.55
2023-02-05T01:50:11.489Z,17.08
2023-02-05T01:52:18.863Z,14.18
2023-02-05T01:54:24.859Z,14.65
2023-02-05T01:56:32.726Z,14.02
2023-02-05T01:58:41.625Z,14.52
2023-02-05T02:00:44.771Z,13.07
2023-02-05T02:02:47.652Z,13.52
2023-02-05T02:04:53.466Z,16.92
2023-02-05T02:06:57.672Z,13.75
2023-02-05T02:09:01.016Z,18.38
2023-02-05T02:11:07.112Z,15.07
2023-02-05T02:13:10.381Z,13.30
2023-02-05T02:15:17.151Z,12.02
2023-02-05T02:17:21.781Z,14.27
2023-02-05T02:19:32.648Z,17.55
2023-02-05T02:22:11.840Z,19.48
2023-02-05T02:24:29.473Z,13.80
2023-02-05T02:26:46.753Z,15.55
2023-02-05T02:28:53.223Z,17.20
2023-02-05T02:31:03.303Z,14.55
2023-02-05T02:33:08.733Z,13.60
2023-02-05T02:35:18.609Z,12.95
2023-02-05T02:37:26.217Z,12.98
2023-02-05T02:39:36.735Z,8.93
2023-02-05T02:41:44.559Z,13.88
2023-02-05T02:43:54.341Z,17.50
2023-02-05T02:46:02.228Z,14.10
2023-02-05T02:48:07.683Z,10.68
2023-02-05T02:50:16.233Z,12.48
2023-02-05T02:52:22.313Z,12.00
2023-02-05T02:54:27.788Z,10.90
2023-02-05T02:56:33.128Z,11.15
2023-02-05T02:58:41.089Z,10.00
2023-02-05T03:00:47.982Z,10.90
2023-02-05T03:02:56.368Z,7.93
2023-02-05T03:05:04.328Z,13.38
2023-02-05T03:07:11.546Z,13.73
2023-02-05T03:09:31.029Z,12.85
2023-02-05T03:11:33.964Z,12.00
2023-02-05T03:13:37.403Z,12.07
2023-02-05T03:15:44.360Z,8.73
2023-02-05T03:17:48.955Z,12.25
2023-02-05T03:19:58.720Z,15.98
2023-02-05T03:22:04.779Z,12.18
2023-02-05T03:24:08.707Z,12.95
2023-02-05T03:26:28.004Z,15.43
2023-02-05T03:28:38.466Z,11.32
2023-02-05T03:30:53.443Z,10.63
2023-02-05T03:33:06.658Z,13.07
2023-02-05T03:35:21.758Z,7.32
2023-02-05T03:37:40.037Z,9.18
2023-02-05T03:39:56.695Z,11.00
2023-02-05T03:42:10.880Z,8.77
2023-02-05T03:44:27.486Z,9.05
2023-02-05T03:46:36.984Z,8.63
2023-02-05T03:48:51.284Z,7.60
2023-02-05T03:50:58.749Z,6.78
2023-02-05T03:53:09.943Z,9.45
2023-02-05T03:55:18.557Z,6.40
2023-02-05T03:57:27.754Z,9.60
2023-02-05T03:59:36.489Z,7.22
2023-02-05T04:01:39.532Z,8.55
2023-02-05T04:03:43.836Z,9.50
2023-02-05T04:05:47.752Z,9.95
2023-02-05T04:07:50.844Z,7.35
2023-02-05T04:09:55.781Z,7.65
2023-02-05T04:11:59.508Z,7.82
2023-02-05T04:14:02.562Z,8.70
2023-02-05T04:16:06.354Z,8.48
2023-02-05T04:18:09.282Z,7.85
2023-02-05T04:20:14.130Z,9.75
2023-02-05T04:22:17.530Z,12.60
2023-02-05T04:24:22.402Z,8.40
2023-02-05T04:26:25.200Z,8.80
2023-02-05T04:28:36.781Z,8.90
2023-02-05T04:30:41.452Z,7.07
2023-02-05T04:32:46.231Z,12.45
2023-02-05T04:34:52.056Z,9.93
2023-02-05T04:36:56.727Z,7.57
2023-02-05T04:39:02.172Z,9.05
2023-02-05T04:41:06.098Z,8.20
2023-02-05T04:43:09.104Z,10.40
2023-02-05T04:45:12.054Z,8.05
2023-02-05T04:47:15.064Z,8.98
2023-02-05T04:49:17.880Z,10.50
2023-02-05T04:51:20.803Z,7.82
2023-02-05T04:53:24.916Z,7.53
2023-02-05T04:55:27.649Z,7.03
2023-02-05T04:57:31.285Z,8.48
2023-02-05T04:59:34.081Z,8.32
2023-02-05T05:01:36.899Z,10.13
2023-02-05T05:03:39.698Z,8.05
2023-02-05T05:05:42.473Z,10.20
2023-02-05T05:07:45.255Z,10.93
2023-02-05T05:09:51.014Z,9.63
2023-02-05T05:11:56.215Z,7.55
2023-02-05T05:13:59.126Z,10.13
2023-02-05T05:16:02.312Z,10.73
2023-02-05T05:18:05.347Z,11.98
2023-02-05T05:20:08.604Z,10.18
2023-02-05T05:22:11.401Z,11.43
2023-02-05T05:24:14.228Z,10.38
2023-02-05T05:26:18.437Z,7.47
2023-02-05T05:28:21.274Z,10.43
2023-02-05T05:30:24.016Z,10.32
2023-02-05T05:32:26.800Z,8.73
2023-02-05T05:34:29.621Z,14.90
2023-02-05T05:36:32.548Z,11.05
2023-02-05T05:38:35.598Z,7.60
2023-02-05T05:40:56.092Z,8.85
2023-02-05T05:43:17.834Z,8.65
2023-02-05T05:45:20.714Z,8.05
2023-02-05T05:47:23.416Z,8.80
2023-02-05T05:49:26.131Z,11.38
2023-02-05T05:51:30.174Z,9.43
2023-02-05T05:53:33.202Z,9.88
2023-02-05T05:55:36.155Z,10.85
2023-02-05T05:57:39.054Z,9.70
2023-02-05T05:59:43.133Z,9.75
2023-02-05T06:01:45.832Z,12.13
2023-02-05T06:03:48.610Z,11.20
2023-02-05T06:05:51.405Z,13.70
2023-02-05T06:07:54.170Z,11.18
2023-02-05T06:09:56.919Z,13.85
2023-02-05T06:11:59.673Z,10.35
2023-02-05T06:14:02.604Z,11.70
2023-02-05T06:16:07.538Z,10.65
2023-02-05T06:18:10.302Z,11.27
2023-02-05T06:20:13.803Z,9.68
2023-02-05T06:22:16.476Z,9.55
2023-02-05T06:24:19.217Z,40.08
2023-02-05T06:26:21.941Z,14.45
2023-02-05T06:28:24.819Z,8.43
2023-02-05T06:30:27.533Z,11.65
2023-02-05T06:32:31.596Z,26.65
2023-02-05T06:34:34.306Z,14.35
2023-02-05T06:36:37.029Z,8.45
2023-02-05T06:38:39.741Z,11.73
2023-02-05T06:40:42.698Z,9.27
2023-02-05T06:42:45.484Z,9.00
2023-02-05T06:44:48.429Z,19.40
2023-02-05T06:46:51.209Z,15.05
2023-02-05T06:48:55.290Z,13.18
2023-02-05T06:50:57.997Z,13.45
2023-02-05T06:53:01.092Z,11.50
2023-02-05T06:55:03.932Z,10.70
2023-02-05T06:57:06.634Z,12.65
2023-02-05T06:59:09.383Z,15.32
2023-02-05T07:01:12.088Z,25.42
2023-02-05T07:03:14.855Z,20.23
2023-02-05T07:05:19.056Z,19.45
2023-02-05T07:07:21.785Z,13.80
2023-02-05T07:09:25.001Z,18.38
2023-02-05T07:11:28.124Z,19.17
2023-02-05T07:13:31.538Z,13.73
2023-02-05T07:15:37.283Z,7.72
2023-02-05T07:17:40.267Z,9.10
2023-02-05T07:19:43.018Z,13.73
2023-02-05T07:21:47.131Z,11.80
2023-02-05T07:23:49.880Z,12.75
2023-02-05T07:25:52.863Z,11.30
2023-02-05T07:27:55.699Z,8.85
2023-02-05T07:29:58.427Z,10.32
2023-02-05T07:32:01.157Z,8.82
2023-02-05T07:34:04.513Z,13.15
2023-02-05T07:36:09.602Z,10.23
2023-02-05T07:38:14.124Z,10.98
2023-02-05T07:40:16.980Z,7.80
2023-02-05T07:42:19.717Z,10.60
2023-02-05T07:44:27.713Z,9.52
2023-02-05T07:46:30.626Z,11.15
2023-02-05T07:48:33.636Z,12.73
2023-02-05T07:50:36.607Z,13.98
2023-02-05T07:52:39.345Z,12.35
2023-02-05T07:54:43.543Z,16.40
2023-02-05T07:56:46.302Z,13.38
2023-02-05T07:58:50.356Z,9.40
2023-02-05T08:00:53.502Z,12.43
2023-02-05T08:02:56.280Z,11.38
2023-02-05T08:04:59.034Z,9.30
2023-02-05T08:07:01.799Z,10.13
2023-02-05T08:09:04.618Z,87.57
2023-02-05T08:11:08.761Z,30.58
2023-02-05T08:13:11.584Z,30.73
2023-02-05T08:15:15.061Z,79.80
2023-02-05T08:17:17.787Z,26.52
2023-02-05T08:19:20.534Z,22.98
2023-02-05T08:21:23.289Z,18.27
2023-02-05T08:23:26.444Z,21.17
2023-02-05T08:25:29.176Z,12.43
2023-02-05T08:27:34.401Z,15.20
2023-02-05T08:29:37.332Z,14.45
2023-02-05T08:31:40.108Z,10.45
2023-02-05T08:33:42.877Z,10.63
2023-02-05T08:35:45.794Z,12.20
2023-02-05T08:37:48.604Z,10.13
2023-02-05T08:39:51.434Z,13.32
2023-02-05T08:41:56.970Z,12.75
2023-02-05T08:44:01.238Z,10.88
2023-02-05T08:46:05.214Z,10.20
2023-02-05T08:48:07.975Z,10.48
2023-02-05T08:50:11.601Z,11.77
2023-02-05T08:52:14.399Z,11.25
2023-02-05T08:54:17.186Z,6.95
2023-02-05T08:56:20.451Z,11.73
2023-02-05T08:58:23.341Z,12.55
2023-02-05T09:00:28.324Z,8.38
2023-02-05T09:02:32.336Z,8.95
2023-02-05T09:04:35.493Z,9.23
2023-02-05T09:06:38.295Z,11.25
2023-02-05T09:08:41.357Z,10.20
2023-02-05T09:10:44.863Z,12.25
2023-02-05T09:12:48.766Z,8.48
2023-02-05T09:14:51.527Z,9.32
2023-02-05T09:16:55.716Z,10.73
2023-02-05T09:18:59.741Z,9.27
2023-02-05T09:21:07.826Z,12.68
2023-02-05T09:23:11.905Z,9.32
2023-02-05T09:25:14.642Z,10.27
2023-02-05T09:27:17.742Z,7.93
2023-02-05T09:29:20.548Z,11.13
2023-02-05T09:31:23.690Z,12.82
2023-02-05T09:33:27.838Z,14.07
2023-02-05T09:35:32.425Z,11.43
2023-02-05T09:37:35.390Z,12.60
2023-02-05T09:42:09.415Z,16.33
2023-02-05T09:44:21.989Z,13.90
2023-02-05T09:46:31.541Z,14.95
2023-02-05T09:48:50.442Z,14.60
2023-02-05T09:50:53.613Z,18.05
2023-02-05T09:53:02.561Z,16.25
2023-02-05T09:55:15.920Z,19.55
2023-02-05T09:57:28.570Z,18.70
2023-02-05T09:59:34.182Z,22.67
2023-02-05T10:01:46.198Z,10.02
2023-02-05T10:03:55.796Z,10.65
2023-02-05T10:06:19.860Z,12.60
2023-02-05T10:08:32.485Z,9.57
2023-02-05T10:10:40.975Z,8.98
2023-02-05T10:12:54.656Z,7.85
2023-02-05T10:15:09.178Z,9.38
2023-02-05T10:17:29.918Z,10.23
2023-02-05T10:20:02.030Z,9.82
2023-02-05T10:22:19.867Z,9.50
2023-02-05T10:24:43.282Z,19.33
2023-02-05T10:26:51.470Z,11.65
2023-02-05T10:29:22.004Z,11.65
2023-02-05T10:31:37.346Z,15.05
2023-02-05T10:33:49.207Z,16.92
2023-02-05T10:36:02.101Z,13.07
2023-02-05T10:38:11.570Z,10.65
2023-02-05T10:40:16.314Z,12.75
2023-02-05T10:42:27.762Z,13.45
2023-02-05T10:44:33.566Z,8.65
2023-02-05T10:46:38.112Z,13.43
2023-02-05T10:48:45.631Z,15.70
2023-02-05T10:50:54.523Z,10.45
2023-02-05T10:52:58.757Z,12.18
2023-02-05T10:55:01.743Z,10.68
2023-02-05T10:57:04.680Z,8.77
2023-02-05T10:59:07.610Z,11.23
2023-02-05T11:01:16.565Z,10.98
2023-02-05T11:03:22.755Z,8.32
2023-02-05T11:05:31.691Z,10.35
2023-02-05T11:07:37.839Z,12.18
2023-02-05T11:09:41.900Z,10.68
2023-02-05T11:11:44.897Z,9.70
2023-02-05T11:13:52.494Z,11.88
2023-02-05T11:15:56.937Z,8.38
2023-02-05T11:18:01.617Z,8.63
2023-02-05T11:20:07.165Z,7.90
2023-02-05T11:22:27.389Z,8.55
2023-02-05T11:24:32.603Z,9.45
2023-02-05T11:26:36.656Z,9.68
2023-02-05T11:28:40.765Z,8.98
2023-02-05T11:30:51.713Z,7.32
2023-02-05T11:32:55.701Z,4.03
2023-02-05T11:35:10.966Z,3.53
2023-02-05T11:37:18.042Z,4.45
2023-02-05T11:39:34.105Z,5.90
2023-02-05T11:41:49.006Z,5.75
2023-02-05T11:43:53.701Z,5.78
2023-02-05T11:45:59.093Z,26.60
2023-02-05T11:48:04.850Z,8.20
2023-02-05T11:50:21.219Z,9.50
2023-02-05T11:52:29.094Z,7.85
2023-02-05T11:54:33.776Z,8.50
2023-02-05T11:56:37.923Z,6.88
2023-02-05T11:58:40.680Z,9.27
2023-02-05T12:00:52.274Z,6.25
2023-02-05T12:03:05.999Z,6.13
2023-02-05T12:05:19.246Z,5.72
2023-02-05T12:07:24.923Z,6.45
2023-02-05T12:09:28.346Z,7.72
2023-02-05T12:12:03.812Z,7.93
2023-02-05T12:14:15.573Z,8.88
2023-02-05T12:16:28.266Z,16.08
2023-02-05T12:18:44.436Z,12.27
2023-02-05T12:20:58.396Z,11.50
2023-02-05T12:23:26.067Z,10.57
2023-02-05T12:25:35.696Z,7.28
2023-02-05T12:27:55.710Z,8.43
2023-02-05T12:30:16.164Z,5.57
2023-02-05T12:32:32.140Z,4.93
2023-02-05T12:34:46.810Z,5.95
2023-02-05T12:37:02.230Z,3.88
2023-02-05T12:39:16.368Z,4.50
2023-02-05T12:41:30.822Z,3.80
2023-02-05T12:43:39.489Z,4.18
2023-02-05T12:45:53.095Z,3.72
2023-02-05T12:48:06.828Z,9.45
2023-02-05T12:50:27.717Z,10.63
2023-02-05T12:52:45.578Z,5.13
2023-02-05T12:54:57.706Z,4.10
2023-02-05T12:57:02.615Z,4.40
2023-02-05T12:59:14.815Z,3.90
2023-02-05T13:01:21.603Z,20.35
2023-02-05T13:03:29.583Z,3.63
2023-02-05T13:05:35.547Z,3.60
2023-02-05T13:07:41.706Z,4.07
2023-02-05T13:09:49.935Z,4.28
2023-02-05T13:11:58.155Z,3.53
2023-02-05T13:14:07.433Z,4.78
2023-02-05T13:16:17.271Z,4.35
2023-02-05T13:18:24.909Z,3.35
2023-02-05T13:20:45.961Z,3.20
2023-02-05T13:23:13.227Z,4.13
2023-02-05T13:25:42.548Z,4.65
2023-02-05T13:28:08.302Z,3.63
2023-02-05T13:30:16.475Z,3.97
2023-02-05T13:32:25.269Z,3.80
2023-02-05T13:34:29.646Z,3.58
2023-02-05T13:37:13.588Z,3.13
2023-02-05T13:39:35.656Z,3.80
2023-02-05T13:41:59.936Z,4.57
2023-02-05T13:44:36.072Z,4.18
2023-02-05T13:47:01.774Z,4.22
2023-02-05T13:49:39.823Z,5.28
2023-02-05T13:52:02.069Z,4.25
2023-02-05T13:54:23.916Z,3.50
2023-02-05T13:56:58.350Z,2.92
2023-02-05T13:59:05.539Z,4.07
2023-02-05T14:01:19.118Z,3.20
2023-02-05T14:03:33.631Z,2.90
2023-02-05T14:05:39.956Z,2.80
2023-02-05T14:07:49.116Z,2.88
2023-02-05T14:09:56.484Z,7.25
2023-02-05T14:12:01.006Z,2.63
2023-02-05T14:14:28.002Z,2.72
2023-02-05T14:16:36.021Z,3.40
2023-02-05T14:18:48.785Z,4.20
2023-02-05T14:20:51.532Z,2.60
2023-02-05T14:22:57.797Z,6.38
2023-02-05T14:25:00.811Z,4.70
2023-02-05T14:27:04.513Z,4.65
2023-02-05T14:29:42.058Z,6.88
2023-02-05T14:31:53.961Z,2.88
2023-02-05T14:34:45.558Z,2.50
2023-02-05T14:36:48.346Z,2.63
2023-02-05T14:38:54.532Z,3.38
2023-02-05T14:41:09.096Z,2.60
2023-02-05T14:43:19.057Z,2.63
2023-02-05T14:45:24.561Z,2.30
2023-02-05T14:47:30.071Z,3.28
2023-02-05T14:49:42.470Z,2.83
2023-02-05T14:51:51.228Z,2.38
2023-02-05T14:53:58.062Z,2.00
2023-02-05T14:56:02.218Z,1.45
2023-02-05T14:58:09.421Z,1.70
2023-02-05T15:00:34.976Z,2.60
2023-02-05T15:03:03.338Z,2.08
2023-02-05T15:05:16.561Z,1.92
2023-02-05T15:07:23.929Z,1.58
2023-02-05T15:09:41.662Z,1.70
2023-02-05T15:11:55.920Z,1.38
2023-02-05T15:14:33.304Z,7.63
2023-02-05T15:16:38.250Z,2.95
2023-02-05T15:18:42.508Z,2.63
2023-02-05T15:20:49.957Z,4.22
2023-02-05T15:22:57.312Z,26.60
2023-02-05T15:25:03.236Z,6.20
2023-02-05T15:27:15.451Z,3.83
2023-02-05T15:29:24.747Z,2.65
2023-02-05T15:31:34.100Z,2.70
2023-02-05T15:33:44.362Z,2.88
2023-02-05T15:35:49.843Z,3.17
2023-02-05T15:37:56.109Z,4.50
2023-02-05T15:40:04.068Z,2.67
2023-02-05T15:42:07.935Z,1.75
2023-02-05T15:44:22.064Z,2.55
2023-02-05T15:46:25.103Z,1.98
2023-02-05T15:48:30.129Z,2.55
2023-02-05T15:50:36.305Z,3.25
2023-02-05T15:52:40.849Z,1.40
2023-02-05T15:54:43.834Z,1.60
2023-02-05T15:56:50.560Z,1.80
2023-02-05T15:58:55.939Z,2.95
2023-02-05T16:00:58.953Z,2.65
2023-02-05T16:03:03.766Z,3.60
2023-02-05T16:05:19.146Z,4.68
2023-02-05T16:07:24.272Z,4.40
2023-02-05T16:09:31.036Z,5.13
2023-02-05T16:11:36.107Z,2.33
2023-02-05T16:13:39.880Z,2.20
2023-02-05T16:15:48.072Z,2.90
2023-02-05T16:17:53.150Z,4.53
2023-02-05T16:20:03.553Z,4.82
2023-02-05T16:22:18.524Z,5.38
2023-02-05T16:24:30.972Z,6.45
2023-02-05T16:26:41.372Z,4.22
2023-02-05T16:28:48.591Z,3.90
2023-02-05T16:30:55.843Z,6.32
2023-02-05T16:33:02.208Z,3.65
2023-02-05T16:35:09.405Z,3.10
2023-02-05T16:37:18.312Z,2.05
2023-02-05T16:39:27.392Z,1.60
2023-02-05T16:41:36.448Z,2.53
2023-02-05T16:43:40.968Z,2.50
2023-02-05T16:46:17.286Z,2.72
2023-02-05T16:48:25.386Z,3.45
2023-02-05T16:50:38.097Z,3.60
2023-02-05T16:52:41.860Z,3.58
2023-02-05T16:54:44.586Z,2.97
2023-02-05T16:56:55.516Z,2.70
2023-02-05T16:59:01.697Z,2.78
2023-02-05T17:01:05.027Z,2.78
2023-02-05T17:03:17.849Z,3.25
2023-02-05T17:05:25.983Z,3.90
2023-02-05T17:07:30.078Z,3.03
2023-02-05T17:09:35.689Z,2.97
2023-02-05T17:11:41.064Z,3.30
2023-02-05T17:13:46.763Z,3.10
2023-02-05T17:15:49.446Z,3.30
2023-02-05T17:17:54.326Z,3.45
2023-02-05T17:20:04.880Z,4.72
2023-02-05T17:22:21.669Z,3.30
2023-02-05T17:24:26.925Z,2.75
2023-02-05T17:26:31.941Z,3.40
2023-02-05T17:28:38.128Z,3.00
2023-02-05T17:30:42.805Z,3.35
2023-02-05T17:32:47.036Z,3.05
2023-02-05T17:34:49.894Z,3.13
2023-02-05T17:36:52.579Z,3.45
2023-02-05T17:38:57.363Z,3.28
2023-02-05T17:41:14.077Z,3.40
2023-02-05T17:43:16.735Z,2.80
2023-02-05T17:45:21.607Z,2.80
2023-02-05T17:47:24.289Z,4.90
2023-02-05T17:49:27.230Z,5.22
2023-02-05T17:51:29.865Z,4.32
2023-02-05T17:53:32.921Z,4.75
2023-02-05T17:55:36.933Z,4.45
2023-02-05T17:57:39.885Z,6.10
2023-02-05T17:59:44.795Z,6.05
2023-02-05T18:01:48.071Z,6.20
2023-02-05T18:03:50.744Z,6.43
2023-02-05T18:05:53.428Z,4.05
2023-02-05T18:07:58.351Z,4.60
2023-02-05T18:10:01.052Z,4.80
2023-02-05T18:12:05.954Z,4.90
2023-02-05T18:14:09.055Z,6.93
2023-02-05T18:16:12.482Z,6.85
2023-02-05T18:18:15.360Z,5.57
2023-02-05T18:20:20.817Z,5.50
2023-02-05T18:22:23.550Z,7.95
2023-02-05T18:24:26.188Z,9.80
2023-02-05T18:26:28.991Z,8.63
2023-02-05T18:28:33.403Z,7.50
2023-02-05T18:30:36.368Z,5.53
2023-02-05T18:32:39.562Z,4.80
2023-02-05T18:34:42.483Z,5.22
2023-02-05T18:36:45.251Z,5.13
2023-02-05T18:38:47.860Z,6.20
2023-02-05T18:40:51.017Z,5.50
2023-02-05T18:42:53.912Z,5.47
2023-02-05T18:44:57.955Z,4.93
2023-02-05T18:47:00.633Z,5.30
2023-02-05T18:49:03.453Z,6.25
2023-02-05T18:51:06.787Z,5.68
2023-02-05T18:53:09.456Z,5.25
2023-02-05T18:55:12.444Z,4.38
2023-02-05T18:57:15.154Z,4.70
2023-02-05T18:59:21.015Z,4.68
2023-02-05T19:01:25.030Z,5.15
2023-02-05T19:03:28.519Z,6.05
2023-02-05T19:05:31.234Z,5.40
2023-02-05T19:07:35.061Z,6.00
2023-02-05T19:09:37.733Z,5.97
2023-02-05T19:11:41.320Z,7.50
2023-02-05T19:13:44.230Z,15.55
2023-02-05T19:15:46.997Z,9.25
2023-02-05T19:17:51.228Z,8.20
2023-02-05T19:19:54.590Z,7.93
2023-02-05T19:21:59.964Z,10.57
2023-02-05T19:24:07.022Z,8.88
2023-02-05T19:26:11.361Z,8.98
2023-02-05T19:28:14.157Z,8.32
2023-02-05T19:30:17.074Z,8.90
2023-02-05T19:32:19.831Z,8.43
2023-02-05T19:34:24.447Z,8.20
2023-02-05T19:36:27.361Z,8.10
2023-02-05T19:38:30.534Z,7.18
2023-02-05T19:40:33.672Z,7.32
2023-02-05T19:42:36.683Z,6.40
2023-02-05T19:44:39.435Z,6.40
2023-02-05T19:46:44.979Z,7.05
2023-02-05T19:48:48.396Z,7.18
2023-02-05T19:50:52.537Z,7.80
2023-02-05T19:52:55.228Z,8.60
2023-02-05T19:54:57.976Z,8.48
2023-02-05T19:57:00.959Z,9.07
2023-02-05T19:59:03.871Z,9.13
2023-02-05T20:01:12.605Z,8.80
2023-02-05T20:03:15.388Z,9.65
2023-02-05T20:05:18.433Z,10.68
2023-02-05T20:07:23.012Z,11.52
2023-02-05T20:09:26.914Z,12.27
2023-02-05T20:11:30.926Z,11.45
2023-02-05T20:13:35.264Z,12.35
2023-02-05T20:15:39.574Z,12.85
2023-02-05T20:17:43.781Z,13.05
2023-02-05T20:19:46.592Z,12.10
2023-02-05T20:21:49.873Z,11.65
2023-02-05T20:23:55.369Z,12.52
2023-02-05T20:26:03.595Z,13.35
2023-02-05T20:28:07.788Z,13.70
2023-02-05T20:30:31.813Z,11.65
2023-02-05T20:32:34.654Z,10.85
2023-02-05T20:34:39.444Z,11.02
2023-02-05T20:36:42.206Z,12.25
2023-02-05T20:38:44.991Z,11.95
2023-02-05T20:40:49.089Z,10.77
2023-02-05T20:42:51.821Z,9.45
2023-02-05T20:44:54.586Z,9.15
2023-02-05T20:46:57.633Z,9.30
2023-02-05T20:49:01.152Z,7.82
2023-02-05T20:51:08.393Z,6.65
2023-02-05T20:53:11.090Z,7.35
2023-02-05T20:55:13.910Z,8.43
2023-02-05T20:57:20.248Z,7.20
2023-02-05T20:59:23.351Z,7.10
2023-02-05T21:01:27.707Z,7.03
2023-02-05T21:03:30.438Z,7.28
2023-02-05T21:05:33.194Z,7.95
2023-02-05T21:07:36.786Z,8.35
2023-02-05T21:09:39.553Z,8.00
2023-02-05T21:11:42.813Z,8.65
2023-02-05T21:13:48.674Z,7.97
2023-02-05T21:15:55.453Z,8.27
2023-02-05T21:17:58.186Z,8.40
2023-02-05T21:20:00.942Z,7.68
2023-02-05T21:22:03.704Z,7.55
2023-02-05T21:24:08.284Z,7.68
2023-02-05T21:26:19.852Z,9.07
2023-02-05T21:28:23.644Z,11.15
2023-02-05T21:30:27.731Z,12.02
2023-02-05T21:32:30.605Z,12.20
2023-02-05T21:34:33.843Z,12.13
2023-02-05T21:36:36.788Z,13.43
2023-02-05T21:38:41.164Z,11.75
2023-02-05T21:40:43.956Z,10.35
2023-02-05T21:42:46.729Z,9.45
2023-02-05T21:44:50.974Z,9.13
2023-02-05T21:46:55.366Z,9.38
2023-02-05T21:48:59.817Z,10.48
2023-02-05T21:51:07.039Z,10.75
2023-02-05T21:53:12.420Z,10.02
2023-02-05T21:55:15.231Z,9.90
2023-02-05T21:57:18.006Z,9.93
2023-02-05T21:59:21.031Z,14.88
2023-02-05T22:01:25.747Z,12.30
2023-02-05T22:03:29.888Z,24.90
2023-02-05T22:05:32.601Z,16.30
2023-02-05T22:07:35.426Z,19.85
2023-02-05T22:09:38.096Z,20.90
2023-02-05T22:11:41.102Z,19.10
2023-02-05T22:13:45.993Z,18.17
2023-02-05T22:15:48.700Z,21.90
2023-02-05T22:17:51.434Z,20.02
2023-02-05T22:19:55.451Z,21.30
2023-02-05T22:21:58.166Z,22.48
2023-02-05T22:24:02.767Z,22.30
2023-02-05T22:26:06.618Z,20.83
2023-02-05T22:28:09.417Z,23.38
2023-02-05T22:30:13.123Z,19.30
2023-02-05T22:32:15.885Z,23.00
2023-02-05T22:34:19.087Z,33.30
2023-02-05T22:36:26.377Z,25.35
2023-02-05T22:38:31.715Z,31.83
2023-02-05T22:40:34.504Z,36.60
2023-02-05T22:42:37.268Z,20.27
2023-02-05T22:44:39.958Z,26.13
2023-02-05T22:46:44.651Z,23.73
2023-02-05T22:48:50.076Z,48.53
2023-02-05T22:50:52.737Z,72.38
2023-02-05T22:52:56.769Z,58.58
2023-02-05T22:54:59.454Z,87.13
2023-02-05T22:57:02.153Z,47.30
2023-02-05T22:59:04.866Z,34.42
2023-02-05T23:01:11.363Z,72.95
2023-02-05T23:03:14.089Z,54.83
2023-02-05T23:05:16.890Z,48.22
2023-02-05T23:07:19.587Z,64.40
2023-02-05T23:09:23.614Z,92.00
2023-02-05T23:11:27.529Z,60.17
2023-02-05T23:13:30.198Z,107.38
2023-02-05T23:15:33.056Z,103.07
2023-02-05T23:17:36.122Z,76.00
2023-02-05T23:19:38.792Z,51.00
2023-02-05T23:21:41.628Z,66.25
2023-02-05T23:23:44.707Z,31.90
2023-02-05T23:25:49.995Z,36.05
2023-02-05T23:27:52.760Z,28.23
2023-02-05T23:29:55.523Z,35.70
2023-02-05T23:31:58.248Z,28.02
2023-02-05T23:34:01.004Z,30.58
2023-02-05T23:36:04.916Z,24.75
2023-02-05T23:38:07.970Z,35.88
2023-02-05T23:40:11.264Z,35.90
2023-02-05T23:42:15.396Z,25.05
2023-02-05T23:44:19.785Z,55.72
2023-02-05T23:46:22.603Z,24.02
2023-02-05T23:48:25.435Z,50.40
2023-02-05T23:50:28.743Z,30.65
2023-02-05T23:52:31.466Z,44.90
2023-02-05T23:54:34.268Z,32.83
2023-02-05T23:56:37.284Z,36.45
2023-02-05T23:58:41.348Z,41.50
